Time;durP1;ratioP1;P1;durP2;ratioP2;P2;SDS_P1;SDS_P2;PMS_P1;PMS_P2;Temp;Humidity;BMP_temperature;BMP_pressure;BME280_temperature;BME280_humidity;BME280_pressure;Samples;Min_cycle;Max_cycle;Signal;HPM_P1;HPM_P2
2023/10/20 00:01:32;;;;;;;4.00;3.70;;;11.50;99.90;;;;;;5067123;28;20642;-76
2023/10/20 00:04:02;;;;;;;3.65;3.45;;;11.50;99.90;;;;;;5066898;28;20201;-75
2023/10/20 00:06:29;;;;;;;3.70;3.50;;;11.50;99.90;;;;;;5065905;28;20202;-76
2023/10/20 00:08:56;;;;;;;3.58;3.38;;;11.50;99.90;;;;;;5066972;28;20225;-75
2023/10/20 00:11:25;;;;;;;4.03;3.75;;;11.50;99.90;;;;;;5067404;28;20273;-76
2023/10/20 00:13:52;;;;;;;4.03;3.72;;;11.40;99.90;;;;;;5063870;28;20221;-75
2023/10/20 00:16:24;;;;;;;4.10;3.80;;;11.40;99.90;;;;;;5067377;28;20199;-76
2023/10/20 00:18:51;;;;;;;3.70;3.50;;;11.50;99.90;;;;;;5066665;28;20781;-75
2023/10/20 00:21:19;;;;;;;28.40;4.78;;;11.50;99.90;;;;;;5064821;28;20781;-75
2023/10/20 00:23:46;;;;;;;78.25;7.75;;;11.50;99.90;;;;;;5065898;28;20293;-75
2023/10/20 00:26:13;;;;;;;12.15;4.10;;;11.40;99.90;;;;;;5068764;28;20218;-76
2023/10/20 00:28:41;;;;;;;3.08;2.78;;;11.40;99.90;;;;;;5064870;28;20221;-75
2023/10/20 00:31:11;;;;;;;29.63;3.95;;;11.40;99.90;;;;;;5064990;28;20259;-77
2023/10/20 00:33:38;;;;;;;3.10;2.53;;;11.40;99.90;;;;;;5066674;28;20302;-76
2023/10/20 00:36:05;;;;;;;2.75;2.22;;;11.40;99.90;;;;;;5066840;28;20198;-76
2023/10/20 00:38:32;;;;;;;2.20;2.10;;;11.30;99.90;;;;;;5062477;28;20257;-77
2023/10/20 00:40:59;;;;;;;6.53;2.20;;;11.30;99.90;;;;;;5067814;28;20231;-76
2023/10/20 00:43:35;;;;;;;2.13;2.03;;;11.30;99.90;;;;;;5066944;28;20210;-76
2023/10/20 00:46:05;;;;;;;1.90;1.80;;;11.40;99.90;;;;;;5066104;28;20301;-75
2023/10/20 00:48:33;;;;;;;1.48;1.38;;;11.40;99.90;;;;;;5067675;28;20639;-78
2023/10/20 00:51:00;;;;;;;1.45;1.45;;;11.40;99.90;;;;;;5067890;28;20232;-77
2023/10/20 00:53:29;;;;;;;1.42;1.42;;;11.30;99.90;;;;;;5065568;28;20657;-76
2023/10/20 00:55:57;;;;;;;1.52;1.52;;;11.30;99.90;;;;;;5067200;28;20244;-76
2023/10/20 00:58:25;;;;;;;1.70;1.70;;;11.30;99.90;;;;;;5065232;28;20309;-76
2023/10/20 01:00:53;;;;;;;1.35;1.35;;;11.40;99.90;;;;;;5066245;28;20229;-76
2023/10/20 01:03:22;;;;;;;1.38;1.30;;;11.40;99.90;;;;;;5065226;28;20198;-75
2023/10/20 01:05:49;;;;;;;2.03;1.70;;;11.40;99.90;;;;;;5062038;28;20707;-78
2023/10/20 01:08:16;;;;;;;1.83;1.60;;;11.40;99.90;;;;;;5067248;28;20229;-77
2023/10/20 01:10:43;;;;;;;1.60;1.60;;;11.40;99.90;;;;;;5066135;28;20203;-75
2023/10/20 01:13:10;;;;;;;6.07;1.60;;;11.40;99.90;;;;;;5067233;28;20198;-76
2023/10/20 01:15:38;;;;;;;1.70;1.60;;;11.40;99.90;;;;;;5065636;28;20252;-75
2023/10/20 01:18:05;;;;;;;1.50;1.50;;;11.40;99.90;;;;;;5065016;28;20250;-77
2023/10/20 01:20:33;;;;;;;1.73;1.63;;;11.40;99.90;;;;;;5066739;28;20210;-76
2023/10/20 01:23:01;;;;;;;1.73;1.70;;;11.40;99.90;;;;;;5066165;28;20206;-75
2023/10/20 01:25:29;;;;;;;1.30;1.30;;;11.40;99.90;;;;;;5068190;28;20249;-76
2023/10/20 01:27:56;;;;;;;1.83;1.73;;;11.40;99.90;;;;;;5066597;28;20233;-77
2023/10/20 01:30:25;;;;;;;1.40;1.40;;;11.40;99.90;;;;;;5065308;28;20198;-76
2023/10/20 01:32:52;;;;;;;7.47;2.47;;;11.40;99.90;;;;;;5065063;28;20198;-76
2023/10/20 01:35:19;;;;;;;2.03;1.88;;;11.40;99.90;;;;;;5066798;28;20722;-76
2023/10/20 01:37:46;;;;;;;1.70;1.70;;;11.40;99.90;;;;;;5062081;28;21599;-76
2023/10/20 01:40:14;;;;;;;1.40;1.40;;;11.40;99.90;;;;;;5062082;28;20224;-76
2023/10/20 01:42:42;;;;;;;1.67;1.67;;;11.40;99.90;;;;;;5068800;28;20202;-77
2023/10/20 01:45:10;;;;;;;1.33;1.33;;;11.40;99.90;;;;;;5068035;28;20210;-76
2023/10/20 01:47:37;;;;;;;1.40;1.40;;;11.40;99.90;;;;;;5067360;28;20297;-76
2023/10/20 01:50:04;;;;;;;1.30;1.30;;;11.40;99.90;;;;;;5066396;28;20194;-76
2023/10/20 01:52:31;;;;;;;1.42;1.42;;;11.40;99.90;;;;;;5065594;28;20205;-76
2023/10/20 01:54:59;;;;;;;1.42;1.42;;;11.40;99.90;;;;;;5066216;28;20246;-75
2023/10/20 01:57:26;;;;;;;5.43;1.98;;;11.40;99.90;;;;;;5062772;28;20321;-76
2023/10/20 01:59:54;;;;;;;6.00;2.00;;;11.40;99.90;;;;;;5066957;28;20259;-76
2023/10/20 02:02:21;;;;;;;1.75;1.65;;;11.40;99.90;;;;;;5065403;28;20237;-76
2023/10/20 02:04:48;;;;;;;77.32;3.38;;;11.40;99.90;;;;;;5065308;28;20279;-76
2023/10/20 02:07:16;;;;;;;1.67;1.58;;;11.40;99.90;;;;;;5069952;28;20726;-76
2023/10/20 02:09:42;;;;;;;1.95;1.50;;;11.30;99.90;;;;;;5069827;28;20225;-75
2023/10/20 02:12:10;;;;;;;67.40;3.83;;;11.30;99.90;;;;;;5068000;28;20299;-76
2023/10/20 02:14:37;;;;;;;4.40;2.05;;;11.30;99.90;;;;;;5070479;28;20202;-76
2023/10/20 02:17:05;;;;;;;1.60;1.50;;;11.30;99.90;;;;;;5072994;28;20287;-76
2023/10/20 02:19:33;;;;;;;1.58;1.52;;;11.30;99.90;;;;;;5068957;28;20252;-75
2023/10/20 02:22:00;;;;;;;1.42;1.42;;;11.20;99.90;;;;;;5067051;28;20198;-76
2023/10/20 02:24:27;;;;;;;1.42;1.42;;;11.30;99.90;;;;;;5066485;28;20288;-76
2023/10/20 02:26:54;;;;;;;1.98;1.88;;;11.30;99.90;;;;;;5069813;28;20214;-74
2023/10/20 02:29:21;;;;;;;1.50;1.50;;;11.30;99.90;;;;;;5064271;28;20203;-75
2023/10/20 02:31:48;;;;;;;1.55;1.55;;;11.30;99.90;;;;;;5068999;28;20198;-75
2023/10/20 02:34:17;;;;;;;1.60;1.60;;;11.30;99.90;;;;;;5071019;28;20205;-76
2023/10/20 02:36:44;;;;;;;1.70;1.70;;;11.30;99.90;;;;;;5067723;28;20840;-74
2023/10/20 02:39:13;;;;;;;1.33;1.33;;;11.30;99.90;;;;;;5069568;28;20263;-75
2023/10/20 02:41:40;;;;;;;1.40;1.40;;;11.40;99.90;;;;;;5066505;28;20198;-76
2023/10/20 02:44:07;;;;;;;1.40;1.40;;;11.40;99.90;;;;;;5068183;28;20263;-75
2023/10/20 02:46:34;;;;;;;1.85;1.75;;;11.40;99.90;;;;;;5067904;28;20210;-74
2023/10/20 02:49:01;;;;;;;2.00;1.58;;;11.40;99.90;;;;;;5069763;28;20218;-74
2023/10/20 02:51:30;;;;;;;21.33;2.58;;;11.40;99.90;;;;;;5067834;28;20252;-71
2023/10/20 02:53:57;;;;;;;1.60;1.60;;;11.30;99.90;;;;;;5068900;28;20210;-75
2023/10/20 02:56:24;;;;;;;12.35;2.65;;;11.30;99.90;;;;;;5069240;28;20195;-73
2023/10/20 02:58:51;;;;;;;1.98;1.88;;;11.30;99.90;;;;;;5067576;28;20345;-74
2023/10/20 03:01:20;;;;;;;1.85;1.75;;;11.30;99.90;;;;;;5066232;28;20199;-74
2023/10/20 03:03:47;;;;;;;1.90;1.80;;;11.30;99.90;;;;;;5064150;28;20309;-73
2023/10/20 03:06:14;;;;;;;1.52;1.52;;;11.30;99.90;;;;;;5066539;28;20264;-74
2023/10/20 03:08:43;;;;;;;1.80;1.70;;;11.40;99.90;;;;;;5069853;28;20292;-72
2023/10/20 03:11:11;;;;;;;1.40;1.40;;;11.40;99.90;;;;;;5067652;28;20210;-76
2023/10/20 03:13:38;;;;;;;1.50;1.50;;;11.40;99.90;;;;;;5067428;28;20213;-72
2023/10/20 03:16:06;;;;;;;1.30;1.30;;;11.40;99.90;;;;;;5068396;28;20248;-75
2023/10/20 03:18:33;;;;;;;120.90;9.90;;;11.50;99.90;;;;;;5069336;28;20218;-75
2023/10/20 03:21:01;;;;;;;113.72;6.28;;;11.40;99.90;;;;;;5069758;28;20209;-75
2023/10/20 03:23:29;;;;;;;100.03;7.00;;;11.40;99.90;;;;;;5068695;28;20298;-73
2023/10/20 03:25:57;;;;;;;121.47;6.18;;;11.30;99.90;;;;;;5068897;28;20210;-72
2023/10/20 03:28:24;;;;;;;1.60;1.50;;;11.20;99.90;;;;;;5068552;28;20230;-74
2023/10/20 03:30:51;;;;;;;37.92;3.10;;;11.20;99.90;;;;;;5069019;28;20273;-75
2023/10/20 03:33:18;;;;;;;85.95;5.07;;;11.20;99.90;;;;;;5069325;28;20292;-76
2023/10/20 03:35:45;;;;;;;156.23;8.02;;;11.10;99.90;;;;;;5069193;28;20531;-76
2023/10/20 03:38:13;;;;;;;280.77;11.93;;;11.10;99.90;;;;;;5069106;28;20731;-76
2023/10/20 03:40:41;;;;;;;5.70;2.13;;;11.10;99.90;;;;;;5069845;28;20210;-75
2023/10/20 03:43:11;;;;;;;1.67;1.58;;;11.10;99.90;;;;;;5069526;28;20214;-74
2023/10/20 03:45:41;;;;;;;1.45;1.45;;;11.10;99.90;;;;;;5066134;28;20218;-76
2023/10/20 03:48:09;;;;;;;11.45;1.85;;;11.20;99.90;;;;;;5069069;28;20222;-76
2023/10/20 03:50:38;;;;;;;8.00;2.42;;;11.20;99.90;;;;;;5069015;28;20199;-75
2023/10/20 03:53:05;;;;;;;161.55;9.60;;;11.30;99.90;;;;;;5067306;28;20202;-74
2023/10/20 03:55:34;;;;;;;10.23;2.67;;;11.20;99.90;;;;;;5067935;28;20304;-75
2023/10/20 03:58:02;;;;;;;9.73;2.83;;;11.20;99.90;;;;;;5067931;28;20301;-76
2023/10/20 04:00:31;;;;;;;18.77;3.65;;;11.20;99.90;;;;;;5068058;28;20668;-75
2023/10/20 04:02:59;;;;;;;1.90;1.80;;;11.20;99.90;;;;;;5069803;28;20202;-76
2023/10/20 04:05:26;;;;;;;2.10;2.00;;;11.20;99.90;;;;;;5069094;28;20194;-76
2023/10/20 04:07:53;;;;;;;2.03;1.92;;;11.20;99.90;;;;;;5067009;28;20329;-75
2023/10/20 04:10:21;;;;;;;2.30;2.20;;;11.20;99.90;;;;;;5067078;28;20248;-74
2023/10/20 04:12:48;;;;;;;2.00;1.90;;;11.30;99.90;;;;;;5066081;28;20235;-76
2023/10/20 04:15:19;;;;;;;1.95;1.85;;;11.40;99.90;;;;;;5071247;28;20214;-76
2023/10/20 04:17:51;;;;;;;1.50;1.50;;;11.50;99.90;;;;;;5069127;28;20267;-74
2023/10/20 04:20:19;;;;;;;2.20;2.10;;;11.50;99.90;;;;;;5063386;28;20917;-75
2023/10/20 04:22:50;;;;;;;2.20;2.10;;;11.60;99.90;;;;;;5065067;28;20195;-75
2023/10/20 04:25:18;;;;;;;91.55;8.15;;;11.70;99.90;;;;;;5066995;28;20293;-75
2023/10/20 04:27:49;;;;;;;71.72;5.45;;;11.70;99.90;;;;;;5065551;28;20981;-74
2023/10/20 04:49:55;;;;;;;2.35;2.25;;;11.50;99.90;;;;;;5063866;28;20272;-74
2023/10/20 04:58:04;;;;;;;3.53;3.33;;;11.70;99.90;;;;;;5065904;28;20226;-75
2023/10/20 05:00:37;;;;;;;2.90;2.70;;;11.90;99.90;;;;;;5071859;28;20251;-75
2023/10/20 05:05:58;;;;;;;2.70;2.50;;;12.00;99.90;;;;;;5064422;28;20309;-74
2023/10/20 05:08:25;;;;;;;2.42;2.33;;;12.00;99.90;;;;;;5060841;28;20232;-75
2023/10/20 05:10:54;;;;;;;3.08;2.88;;;12.10;99.90;;;;;;5060339;28;20210;-75
2023/10/20 05:13:22;;;;;;;3.05;2.85;;;12.30;99.90;;;;;;5066737;28;20202;-77
2023/10/20 05:15:50;;;;;;;3.10;2.92;;;12.30;99.90;;;;;;5061441;28;20195;-76
2023/10/20 05:18:17;;;;;;;4.07;3.78;;;12.30;99.90;;;;;;5066330;28;20213;-76
2023/10/20 05:20:46;;;;;;;3.28;3.08;;;12.40;99.90;;;;;;5059092;28;20227;-76
2023/10/20 05:23:15;;;;;;;2.92;2.72;;;12.40;99.90;;;;;;5062171;28;20278;-76
2023/10/20 05:25:49;;;;;;;2.58;2.47;;;12.40;99.90;;;;;;5061065;28;20282;-75
2023/10/20 05:28:17;;;;;;;3.58;3.28;;;12.40;99.90;;;;;;5054215;28;20222;-76
2023/10/20 05:30:45;;;;;;;8.10;4.20;;;12.50;99.90;;;;;;5059363;28;20279;-76
2023/10/20 05:33:14;;;;;;;4.25;3.63;;;13.40;99.90;;;;;;5058523;28;20248;-76
2023/10/20 05:35:40;;;;;;;2.60;2.40;;;14.00;99.90;;;;;;5058004;28;20198;-74
2023/10/20 05:38:08;;;;;;;2.40;2.20;;;13.90;99.90;;;;;;5058748;28;20226;-75
2023/10/20 05:40:37;;;;;;;2.20;2.10;;;13.50;99.90;;;;;;5060517;28;20198;-76
2023/10/20 05:43:05;;;;;;;4.07;2.65;;;13.30;99.90;;;;;;5058778;28;20264;-76
2023/10/20 05:45:38;;;;;;;3.50;2.70;;;13.70;99.90;;;;;;5059248;28;20209;-76
2023/10/20 05:48:06;;;;;;;2.42;2.22;;;14.60;99.90;;;;;;5059494;28;20218;-75
2023/10/20 05:50:35;;;;;;;3.55;2.90;;;14.70;99.90;;;;;;5060150;28;20291;-76
2023/10/20 05:53:03;;;;;;;5.43;2.90;;;14.60;99.90;;;;;;5057070;28;20282;-77
2023/10/20 05:55:30;;;;;;;3.55;2.63;;;14.60;99.90;;;;;;5059843;28;20884;-76
2023/10/20 05:57:59;;;;;;;5.20;3.25;;;14.40;99.90;;;;;;5058209;28;20218;-77
2023/10/20 06:00:26;;;;;;;6.28;3.10;;;14.30;99.90;;;;;;5058913;28;20251;-76
2023/10/20 06:02:53;;;;;;;4.38;3.00;;;14.50;99.90;;;;;;5059137;28;20260;-73
2023/10/20 06:05:20;;;;;;;5.82;2.78;;;14.90;99.90;;;;;;5063829;28;20205;-76
2023/10/20 06:07:47;;;;;;;5.15;2.97;;;15.30;99.90;;;;;;5061214;28;20785;-76
2023/10/20 06:10:21;;;;;;;4.38;3.10;;;15.80;99.90;;;;;;5060189;28;20214;-77
2023/10/20 06:12:50;;;;;;;6.80;3.47;;;16.10;99.90;;;;;;5066056;28;20195;-76
2023/10/20 06:15:20;;;;;;;5.00;2.63;;;16.00;99.90;;;;;;5058630;28;20341;-76
2023/10/20 06:17:47;;;;;;;3.38;2.28;;;15.90;99.90;;;;;;5061383;28;20210;-78
2023/10/20 06:20:14;;;;;;;8.02;2.88;;;16.30;99.90;;;;;;5062185;28;20198;-75
2023/10/20 06:22:42;;;;;;;4.88;2.65;;;16.70;99.90;;;;;;5060701;28;20297;-76
2023/10/20 06:25:12;;;;;;;4.40;2.50;;;16.80;99.90;;;;;;5060085;28;20195;-77
2023/10/20 06:27:40;;;;;;;6.22;2.88;;;17.10;99.90;;;;;;5063515;28;20715;-76
2023/10/20 06:30:14;;;;;;;5.72;2.50;;;17.30;99.90;;;;;;5059516;28;20293;-76
2023/10/20 06:32:45;;;;;;;5.35;2.42;;;17.30;99.90;;;;;;5062306;28;20209;-75
2023/10/20 06:35:13;;;;;;;5.40;2.50;;;17.50;99.90;;;;;;5061238;28;20294;-76
2023/10/20 06:37:46;;;;;;;6.63;2.70;;;17.50;99.90;;;;;;5057549;28;20214;-76
2023/10/20 06:40:16;;;;;;;3.90;2.25;;;17.60;99.90;;;;;;5058328;28;20203;-75
2023/10/20 06:42:44;;;;;;;5.57;2.90;;;17.70;99.90;;;;;;5060296;28;20293;-76
2023/10/20 06:45:11;;;;;;;4.88;2.53;;;17.80;99.90;;;;;;5063185;28;20204;-75
2023/10/20 06:47:40;;;;;;;4.57;2.78;;;17.90;99.90;;;;;;5058185;28;20218;-78
2023/10/20 06:50:10;;;;;;;4.95;2.50;;;18.10;99.90;;;;;;5060941;28;20202;-75
2023/10/20 06:52:37;;;;;;;7.70;2.78;;;18.10;99.90;;;;;;5068547;28;20259;-78
2023/10/20 06:55:05;;;;;;;7.13;2.53;;;18.10;99.90;;;;;;5066508;28;20245;-78
2023/10/20 06:57:33;;;;;;;6.22;2.92;;;18.10;99.90;;;;;;5065543;28;20811;-74
2023/10/20 07:00:01;;;;;;;7.15;2.25;;;18.20;99.90;;;;;;5066667;28;20198;-78
2023/10/20 07:02:27;;;;;;;4.10;2.90;;;18.20;99.90;;;;;;5065343;28;20202;-76
2023/10/20 07:04:55;;;;;;;6.05;2.50;;;18.10;99.90;;;;;;5064884;28;20863;-76
2023/10/20 07:07:24;;;;;;;4.22;2.20;;;18.20;99.90;;;;;;5063008;28;20226;-75
2023/10/20 07:09:51;;;;;;;7.43;2.55;;;18.20;99.90;;;;;;5064923;28;20199;-76
2023/10/20 07:12:18;;;;;;;3.17;2.10;;;18.10;99.90;;;;;;5068373;28;20275;-76
2023/10/20 07:14:45;;;;;;;5.30;2.72;;;18.20;99.90;;;;;;5066033;28;20625;-76
2023/10/20 07:17:11;;;;;;;5.40;2.38;;;18.30;99.90;;;;;;5065041;28;20222;-77
2023/10/20 07:19:38;;;;;;;4.70;2.40;;;18.30;99.90;;;;;;5066658;28;20709;-75
2023/10/20 07:22:05;;;;;;;4.55;2.28;;;18.40;99.90;;;;;;5067102;28;20244;-76
2023/10/20 07:24:34;;;;;;;4.80;2.30;;;18.40;99.90;;;;;;5068416;28;20213;-77
2023/10/20 07:27:02;;;;;;;5.97;2.65;;;18.40;99.90;;;;;;5073155;28;20802;-75
2023/10/20 07:29:30;;;;;;;5.45;2.58;;;18.40;99.90;;;;;;5073293;28;20210;-76
2023/10/20 07:31:57;;;;;;;4.93;2.80;;;18.40;99.90;;;;;;5069709;28;20285;-76
2023/10/20 07:34:27;;;;;;;6.50;2.75;;;18.20;99.90;;;;;;5062874;28;20256;-76
2023/10/20 07:36:54;;;;;;;5.57;2.65;;;18.00;99.90;;;;;;5063960;28;20198;-76
2023/10/20 07:39:22;;;;;;;6.45;2.30;;;17.90;99.90;;;;;;5066788;28;20252;-75
2023/10/20 07:41:51;;;;;;;5.38;2.47;;;17.70;99.90;;;;;;5068085;28;20205;-75
2023/10/20 07:44:18;;;;;;;8.52;2.63;;;17.80;99.90;;;;;;5065067;28;20641;-78
2023/10/20 07:46:45;;;;;;;5.22;2.63;;;17.70;99.90;;;;;;5064033;28;20704;-75
2023/10/20 07:49:12;;;;;;;6.10;2.28;;;17.70;99.90;;;;;;5060339;28;20210;-77
2023/10/20 07:51:39;;;;;;;6.68;2.75;;;17.70;99.90;;;;;;5061479;28;20248;-76
2023/10/20 07:54:07;;;;;;;6.38;2.40;;;17.70;99.90;;;;;;5061643;28;20286;-75
2023/10/20 07:56:34;;;;;;;5.20;2.55;;;17.60;99.90;;;;;;5062287;28;20664;-75
2023/10/20 07:59:03;;;;;;;6.90;2.97;;;17.60;99.90;;;;;;5063734;28;20221;-75
2023/10/20 08:01:30;;;;;;;7.25;2.80;;;17.60;99.90;;;;;;5063770;28;20206;-75
2023/10/20 08:03:57;;;;;;;4.18;2.47;;;17.50;99.90;;;;;;5064881;28;20221;-77
2023/10/20 08:06:24;;;;;;;6.97;2.88;;;17.50;99.90;;;;;;5062033;28;20194;-76
2023/10/20 08:08:52;;;;;;;3.85;2.60;;;17.50;99.90;;;;;;5064686;28;20214;-76
2023/10/20 08:11:19;;;;;;;7.13;3.42;;;17.50;99.90;;;;;;5066852;28;20226;-76
2023/10/20 08:13:50;;;;;;;4.57;2.60;;;17.70;99.90;;;;;;5063584;28;20677;-76
2023/10/20 08:16:21;;;;;;;5.13;2.90;;;17.70;99.90;;;;;;5062495;28;20271;-76
2023/10/20 08:18:49;;;;;;;7.95;2.80;;;17.70;99.90;;;;;;5064651;28;20720;-76
2023/10/20 08:21:16;;;;;;;8.48;2.70;;;17.70;99.90;;;;;;5061867;28;20197;-76
2023/10/20 08:23:44;;;;;;;5.13;2.70;;;17.80;99.90;;;;;;5065426;28;20194;-75
2023/10/20 08:26:21;;;;;;;8.45;2.78;;;17.80;99.90;;;;;;5061335;28;20233;-75
2023/10/20 08:28:50;;;;;;;8.82;2.95;;;17.80;99.90;;;;;;5061075;28;20316;-76
2023/10/20 08:31:19;;;;;;;6.35;2.63;;;17.70;99.90;;;;;;5060642;28;20221;-74
2023/10/20 08:33:47;;;;;;;6.15;2.90;;;17.80;99.90;;;;;;5061007;28;20195;-75
2023/10/20 08:36:15;;;;;;;7.53;3.13;;;17.80;99.90;;;;;;5058790;28;20198;-75
2023/10/20 08:38:44;;;;;;;6.97;2.67;;;17.90;99.90;;;;;;5061960;28;20225;-76
2023/10/20 08:41:13;;;;;;;5.28;2.65;;;17.80;99.90;;;;;;5060727;28;20198;-74
2023/10/20 08:43:41;;;;;;;7.13;3.03;;;17.70;99.90;;;;;;5061084;28;20743;-76
2023/10/20 08:46:09;;;;;;;4.72;3.42;;;17.60;99.90;;;;;;5061463;28;20201;-74
2023/10/20 08:48:39;;;;;;;5.85;2.70;;;17.60;99.90;;;;;;5057849;28;20250;-76
2023/10/20 08:51:08;;;;;;;6.75;3.17;;;17.60;99.90;;;;;;5059619;28;20290;-74
2023/10/20 08:53:36;;;;;;;5.10;2.40;;;17.80;99.90;;;;;;5061749;28;20194;-76
2023/10/20 08:56:04;;;;;;;7.15;2.88;;;17.80;99.90;;;;;;5061268;28;20198;-76
2023/10/20 08:58:32;;;;;;;5.57;2.70;;;17.80;99.90;;;;;;5060148;28;22164;-75
2023/10/20 09:01:00;;;;;;;5.82;2.72;;;17.80;99.90;;;;;;5059926;28;20202;-76
2023/10/20 09:03:27;;;;;;;5.65;2.88;;;17.70;99.90;;;;;;5061351;28;20287;-76
2023/10/20 09:06:04;;;;;;;8.10;3.10;;;17.80;99.90;;;;;;5058650;28;20965;-75
2023/10/20 09:08:31;;;;;;;6.35;2.95;;;17.80;99.90;;;;;;5062655;28;20772;-76
2023/10/20 09:10:57;;;;;;;5.50;2.85;;;17.90;99.90;;;;;;5062043;28;20202;-75
2023/10/20 09:13:30;;;;;;;4.15;2.58;;;17.90;99.90;;;;;;5061217;28;20401;-76
2023/10/20 09:15:57;;;;;;;4.22;2.20;;;17.80;99.90;;;;;;5061920;28;20194;-75
2023/10/20 09:18:25;;;;;;;4.60;2.30;;;17.80;99.90;;;;;;5060732;28;20218;-75
2023/10/20 09:20:52;;;;;;;4.35;2.67;;;17.80;99.90;;;;;;5060241;28;20217;-75
2023/10/20 09:23:21;;;;;;;5.95;2.85;;;17.90;99.90;;;;;;5060936;28;20190;-73
2023/10/20 09:25:48;;;;;;;5.72;2.70;;;17.90;99.90;;;;;;5058003;28;20210;-77
2023/10/20 09:28:15;;;;;;;6.43;2.70;;;17.80;99.90;;;;;;5057365;28;20848;-75
2023/10/20 09:30:43;;;;;;;5.32;2.45;;;17.80;99.90;;;;;;5060358;28;20221;-74
2023/10/20 09:33:11;;;;;;;6.60;2.50;;;17.80;99.90;;;;;;5060818;28;20263;-75
2023/10/20 09:35:41;;;;;;;8.18;2.58;;;17.70;99.90;;;;;;5060182;28;20201;-75
2023/10/20 09:38:11;;;;;;;5.55;3.05;;;17.70;99.90;;;;;;5060918;28;21360;-74
2023/10/20 09:40:41;;;;;;;5.18;2.60;;;17.80;99.90;;;;;;5059400;28;20286;-75
2023/10/20 09:43:15;;;;;;;5.07;2.55;;;17.80;99.90;;;;;;5058443;28;21093;-75
2023/10/20 09:45:48;;;;;;;6.70;2.67;;;17.80;99.90;;;;;;5061776;28;20225;-76
2023/10/20 09:48:19;;;;;;;3.90;2.53;;;17.70;99.90;;;;;;5059125;28;20246;-76
2023/10/20 09:50:47;;;;;;;4.85;2.47;;;17.70;99.90;;;;;;5058403;28;20226;-76
2023/10/20 09:53:15;;;;;;;3.53;2.38;;;17.70;99.90;;;;;;5060023;28;20258;-75
2023/10/20 09:55:46;;;;;;;6.15;2.85;;;17.60;99.90;;;;;;5060619;28;20194;-75
2023/10/20 09:58:13;;;;;;;4.80;2.55;;;17.70;99.90;;;;;;5063065;28;20703;-75
2023/10/20 10:00:43;;;;;;;4.05;2.47;;;17.80;99.90;;;;;;5060855;28;20235;-76
2023/10/20 10:03:12;;;;;;;2.95;2.55;;;17.80;99.90;;;;;;5061518;28;20206;-76
2023/10/20 10:05:41;;;;;;;4.82;2.63;;;17.60;99.90;;;;;;5058639;28;20248;-74
2023/10/20 10:08:10;;;;;;;5.22;2.42;;;17.40;99.90;;;;;;5059705;28;20225;-75
2023/10/20 10:10:38;;;;;;;4.90;2.95;;;17.10;99.90;;;;;;5059956;28;20256;-77
2023/10/20 10:13:07;;;;;;;4.07;2.75;;;16.90;99.90;;;;;;5057772;28;20221;-75
2023/10/20 10:15:41;;;;;;;4.47;2.95;;;16.80;99.90;;;;;;5065794;28;20255;-76
2023/10/20 10:18:11;;;;;;;4.13;2.88;;;16.70;99.90;;;;;;5062124;28;20218;-77
2023/10/20 10:20:47;;;;;;;5.47;3.35;;;16.70;99.90;;;;;;5059194;28;20230;-74
2023/10/20 10:23:15;;;;;;;4.15;2.60;;;16.60;99.90;;;;;;5062633;28;20714;-75
2023/10/20 10:25:43;;;;;;;3.40;2.45;;;16.50;99.90;;;;;;5064600;28;20290;-74
2023/10/20 10:28:16;;;;;;;3.10;2.20;;;16.50;99.90;;;;;;5067120;28;20230;-76
2023/10/20 10:30:46;;;;;;;6.63;3.30;;;16.50;99.90;;;;;;5066479;28;20206;-75
2023/10/20 10:33:13;;;;;;;4.25;3.17;;;16.50;99.90;;;;;;5069261;28;20708;-74
2023/10/20 10:35:41;;;;;;;4.40;3.05;;;16.50;99.90;;;;;;5067588;28;20645;-75
2023/10/20 10:38:20;;;;;;;4.68;2.80;;;16.50;99.90;;;;;;5065837;28;20218;-77
2023/10/20 10:40:47;;;;;;;7.78;3.55;;;16.50;99.90;;;;;;5066173;28;20231;-75
2023/10/20 10:43:19;;;;;;;6.45;3.10;;;16.50;99.90;;;;;;5067387;28;20283;-75
2023/10/20 10:45:52;;;;;;;9.10;3.50;;;16.50;99.90;;;;;;5065469;28;20211;-76
2023/10/20 10:48:19;;;;;;;7.35;3.30;;;16.40;99.90;;;;;;5065226;28;20241;-76
2023/10/20 10:50:47;;;;;;;5.15;3.10;;;16.40;99.90;;;;;;5067876;28;20210;-76
2023/10/20 10:53:15;;;;;;;4.85;3.40;;;16.50;99.90;;;;;;5066716;28;20207;-75
2023/10/20 10:55:43;;;;;;;4.07;2.80;;;16.40;99.90;;;;;;5065984;28;21584;-75
2023/10/20 10:58:12;;;;;;;5.93;3.15;;;16.40;99.90;;;;;;5065078;28;20699;-74
2023/10/20 11:00:42;;;;;;;4.53;2.70;;;16.30;99.90;;;;;;5059051;28;20210;-75
2023/10/20 11:03:10;;;;;;;3.85;2.70;;;16.30;99.90;;;;;;5062667;28;20620;-77
2023/10/20 11:05:38;;;;;;;5.88;3.33;;;16.30;99.90;;;;;;5066810;28;20256;-76
2023/10/20 11:08:07;;;;;;;3.33;3.03;;;16.30;99.90;;;;;;5062266;28;20273;-76
2023/10/20 11:10:36;;;;;;;3.50;2.55;;;16.20;99.90;;;;;;5062837;28;20696;-76
2023/10/20 11:13:07;;;;;;;4.13;2.85;;;16.20;99.90;;;;;;5061269;28;20228;-75
2023/10/20 11:15:35;;;;;;;5.22;3.13;;;16.20;99.90;;;;;;5062593;28;20267;-75
2023/10/20 11:18:05;;;;;;;3.33;2.85;;;16.20;99.90;;;;;;5060853;28;20213;-77
2023/10/20 11:20:34;;;;;;;4.35;2.80;;;16.20;99.90;;;;;;5061255;28;20202;-76
2023/10/20 11:23:03;;;;;;;3.60;2.55;;;16.20;99.90;;;;;;5062926;28;20194;-76
2023/10/20 11:25:30;;;;;;;3.33;2.70;;;16.30;99.90;;;;;;5063792;28;20313;-75
2023/10/20 11:27:57;;;;;;;3.83;2.80;;;16.40;99.90;;;;;;5063052;28;20889;-75
2023/10/20 11:30:25;;;;;;;2.67;2.42;;;16.40;99.90;;;;;;5064138;28;20289;-76
2023/10/20 11:32:54;;;;;;;6.28;4.70;;;16.40;99.90;;;;;;5066046;28;20222;-76
2023/10/20 11:35:24;;;;;;;4.57;3.90;;;16.40;99.90;;;;;;5068007;28;20281;-75
2023/10/20 11:37:51;;;;;;;5.68;4.18;;;16.40;99.90;;;;;;5066391;28;20213;-76
2023/10/20 11:40:18;;;;;;;6.95;4.15;;;16.30;99.90;;;;;;5064219;28;22030;-75
2023/10/20 11:42:45;;;;;;;7.90;4.03;;;16.40;99.90;;;;;;5064305;28;20248;-75
2023/10/20 11:45:12;;;;;;;4.30;3.75;;;16.40;99.90;;;;;;5063648;28;20202;-74
2023/10/20 11:47:39;;;;;;;4.55;3.42;;;16.30;99.90;;;;;;5063419;28;20279;-76
2023/10/20 11:50:10;;;;;;;5.25;3.60;;;16.30;99.90;;;;;;5064400;28;20751;-77
2023/10/20 11:52:39;;;;;;;4.43;2.90;;;16.30;99.90;;;;;;5064645;28;20206;-77
2023/10/20 11:55:08;;;;;;;7.93;3.40;;;16.20;99.90;;;;;;5067974;28;20836;-77
2023/10/20 11:57:35;;;;;;;3.50;2.83;;;16.20;99.90;;;;;;5066302;28;20291;-77
2023/10/20 12:00:07;;;;;;;5.00;3.72;;;16.10;99.90;;;;;;5068845;28;20657;-76
2023/10/20 12:02:34;;;;;;;4.32;2.80;;;16.00;99.90;;;;;;5068662;28;20228;-76
2023/10/20 12:05:01;;;;;;;3.10;2.80;;;16.00;99.90;;;;;;5070129;28;20198;-77
2023/10/20 12:07:28;;;;;;;4.40;3.40;;;16.00;99.90;;;;;;5061451;28;20218;-75
2023/10/20 12:09:56;;;;;;;3.42;3.13;;;16.00;99.90;;;;;;5064966;28;20214;-76
2023/10/20 12:12:23;;;;;;;3.30;3.00;;;16.00;99.90;;;;;;5063606;28;20202;-76
2023/10/20 12:14:51;;;;;;;3.85;3.40;;;16.00;99.90;;;;;;5060206;28;20495;-76
2023/10/20 12:17:19;;;;;;;3.70;3.35;;;15.90;99.90;;;;;;5063386;28;20279;-76
2023/10/20 12:19:46;;;;;;;4.75;3.65;;;15.90;99.90;;;;;;5058930;28;20199;-74
2023/10/20 12:22:13;;;;;;;4.90;3.70;;;15.90;99.90;;;;;;5065467;28;20301;-76
2023/10/20 12:24:40;;;;;;;5.53;3.80;;;15.80;99.90;;;;;;5063187;28;20194;-75
2023/10/20 12:27:10;;;;;;;5.32;3.92;;;15.80;99.90;;;;;;5062232;28;20233;-75
2023/10/20 12:29:37;;;;;;;6.32;4.03;;;15.70;99.90;;;;;;5059661;28;20297;-75
2023/10/20 12:32:04;;;;;;;4.60;3.20;;;15.70;99.90;;;;;;5063645;28;20284;-76
2023/10/20 12:34:32;;;;;;;5.18;3.65;;;15.70;99.90;;;;;;5062529;28;20792;-76
2023/10/20 12:36:59;;;;;;;4.07;2.78;;;15.60;99.90;;;;;;5060431;28;20296;-76
2023/10/20 12:39:28;;;;;;;84.20;7.28;;;15.60;99.90;;;;;;5064615;28;20245;-76
2023/10/20 12:41:55;;;;;;;8.63;3.10;;;15.60;99.90;;;;;;5062204;28;21280;-74
2023/10/20 12:44:24;;;;;;;4.05;2.90;;;15.60;99.90;;;;;;5056803;28;20226;-75
2023/10/20 12:46:51;;;;;;;5.55;3.65;;;15.60;99.90;;;;;;5059826;28;21213;-75
2023/10/20 12:49:18;;;;;;;3.78;3.13;;;15.60;99.90;;;;;;5062502;28;20321;-75
2023/10/20 12:51:45;;;;;;;3.10;2.88;;;15.60;99.90;;;;;;5066258;28;20275;-75
2023/10/20 12:54:12;;;;;;;4.97;2.80;;;15.60;99.90;;;;;;5060529;28;20264;-75
2023/10/20 12:56:40;;;;;;;6.20;2.75;;;15.60;99.90;;;;;;5063027;28;20213;-75
2023/10/20 12:59:06;;;;;;;4.32;2.80;;;15.80;99.90;;;;;;5065092;28;20248;-75
2023/10/20 13:01:35;;;;;;;6.72;3.38;;;16.00;99.90;;;;;;5057683;28;20257;-75
2023/10/20 13:04:04;;;;;;;5.18;2.67;;;16.10;99.90;;;;;;5063575;28;20896;-77
2023/10/20 13:06:31;;;;;;;8.85;3.25;;;16.30;99.90;;;;;;5065391;28;20251;-76
2023/10/20 13:08:57;;;;;;;659.80;21.85;;;16.50;99.90;;;;;;5068948;28;20218;-75
2023/10/20 13:11:24;;;;;;;3.80;2.63;;;16.40;99.90;;;;;;5069532;28;20239;-77
2023/10/20 13:13:51;;;;;;;2.80;2.47;;;16.30;99.90;;;;;;5068279;28;20202;-77
2023/10/20 13:16:18;;;;;;;310.10;15.55;;;16.10;99.90;;;;;;5066629;28;20198;-77
2023/10/20 13:18:47;;;;;;;510.55;18.98;;;16.00;99.90;;;;;;5064614;28;20278;-77